Time;durP1;ratioP1;P1;durP2;ratioP2;P2;SDS_P1;SDS_P2;PMS_P1;PMS_P2;Temp;Humidity;BMP_temperature;BMP_pressure;BME280_temperature;BME280_humidity;BME280_pressure;Samples;Min_cycle;Max_cycle;Signal;HPM_P1;HPM_P2
2021/04/26 00:02:12;;;;;;;7.87;3.90;;;5.00;99.90;;;;;;5041291;28;20192;-64
2021/04/26 00:04:39;;;;;;;7.70;3.23;;;5.00;99.90;;;;;;5040946;28;20269;-64
2021/04/26 00:07:07;;;;;;;7.00;3.20;;;5.10;99.90;;;;;;5041930;28;20232;-64
2021/04/26 00:09:36;;;;;;;12.07;3.47;;;5.00;99.90;;;;;;5043591;28;20183;-63
2021/04/26 00:12:04;;;;;;;9.93;3.93;;;5.00;99.90;;;;;;5041050;28;20322;-64
2021/04/26 00:14:31;;;;;;;8.80;3.23;;;4.90;99.90;;;;;;5044476;28;20194;-64
2021/04/26 00:16:58;;;;;;;6.60;3.57;;;5.00;99.90;;;;;;5046928;28;20221;-64
2021/04/26 00:19:27;;;;;;;10.43;3.90;;;5.00;99.90;;;;;;5043015;28;20205;-64
2021/04/26 00:21:54;;;;;;;12.10;3.90;;;4.90;99.90;;;;;;5043203;28;20197;-64
2021/04/26 00:24:22;;;;;;;12.83;4.50;;;4.90;99.90;;;;;;5040476;28;20353;-63
2021/04/26 00:26:49;;;;;;;5.23;3.27;;;4.90;99.90;;;;;;5046395;28;20209;-63
2021/04/26 00:29:17;;;;;;;8.63;3.50;;;4.90;99.90;;;;;;5040279;28;20189;-63
2021/04/26 00:31:44;;;;;;;11.07;4.20;;;4.90;99.90;;;;;;5042440;28;20186;-64
2021/04/26 00:34:12;;;;;;;9.07;3.70;;;4.80;99.90;;;;;;5045159;28;20192;-64
2021/04/26 00:36:40;;;;;;;9.13;3.33;;;4.80;99.90;;;;;;5044202;28;20401;-64
2021/04/26 00:39:08;;;;;;;11.33;3.70;;;4.70;99.90;;;;;;5044559;28;20182;-64
2021/04/26 00:41:35;;;;;;;9.30;3.67;;;4.70;99.90;;;;;;5040434;28;20188;-63
2021/04/26 00:44:03;;;;;;;11.27;3.60;;;4.60;99.90;;;;;;5044563;28;20181;-64
2021/04/26 00:46:30;;;;;;;10.00;3.47;;;4.60;99.90;;;;;;5037305;28;20224;-63
2021/04/26 00:48:57;;;;;;;7.47;3.60;;;4.60;99.90;;;;;;5038452;28;20208;-64
2021/04/26 00:51:25;;;;;;;14.33;3.93;;;4.50;99.90;;;;;;5045135;28;20232;-64
2021/04/26 00:53:54;;;;;;;7.93;3.40;;;4.50;99.90;;;;;;5040507;28;20193;-63
2021/04/26 00:56:22;;;;;;;8.67;3.30;;;4.40;99.90;;;;;;5046351;28;20205;-63
2021/04/26 00:58:50;;;;;;;9.07;3.40;;;4.40;99.90;;;;;;5045585;28;20295;-64
2021/04/26 01:01:36;;;;;;;7.03;3.50;;;4.40;99.90;;;;;;5037709;28;20182;-64
2021/04/26 01:04:04;;;;;;;7.37;3.60;;;4.30;99.90;;;;;;5042012;28;20173;-64
2021/04/26 01:06:36;;;;;;;9.40;3.67;;;4.30;99.90;;;;;;5041359;28;20256;-63
2021/04/26 01:09:05;;;;;;;8.73;3.67;;;4.20;99.90;;;;;;5043668;28;20184;-64
2021/04/26 01:11:41;;;;;;;8.87;3.90;;;4.20;99.90;;;;;;5044433;28;20418;-64
2021/04/26 01:14:25;;;;;;;10.50;4.07;;;4.20;99.90;;;;;;5041369;28;20458;-64
2021/04/26 01:16:57;;;;;;;9.63;3.40;;;4.10;99.90;;;;;;5045390;28;20263;-64
2021/04/26 01:19:50;;;;;;;10.13;3.93;;;4.00;99.90;;;;;;5043113;28;20187;-64
2021/04/26 01:22:43;;;;;;;10.83;4.00;;;4.00;99.90;;;;;;5041383;28;20236;-64
2021/04/26 01:25:15;;;;;;;11.10;4.07;;;4.00;99.90;;;;;;5041294;28;20189;-63
2021/04/26 01:28:02;;;;;;;7.53;3.80;;;4.00;99.90;;;;;;5039550;28;20228;-65
2021/04/26 01:30:35;;;;;;;12.37;4.10;;;4.00;99.90;;;;;;5039823;28;20181;-64
2021/04/26 01:33:06;;;;;;;13.33;3.70;;;3.90;99.90;;;;;;5044367;28;20198;-64
2021/04/26 01:35:35;;;;;;;11.43;3.70;;;3.90;99.90;;;;;;5042419;28;20220;-64
2021/04/26 01:38:10;;;;;;;8.03;3.80;;;3.80;99.90;;;;;;5043248;28;20251;-64
2021/04/26 01:40:42;;;;;;;14.37;4.67;;;3.80;99.90;;;;;;5043230;28;20409;-64
2021/04/26 01:43:10;;;;;;;6.93;4.10;;;3.80;99.90;;;;;;5042797;28;20185;-64
2021/04/26 01:45:38;;;;;;;14.60;4.60;;;3.70;99.90;;;;;;5058389;28;20201;-64
2021/04/26 01:48:07;;;;;;;7.27;3.70;;;3.70;99.90;;;;;;5044817;28;20345;-64
2021/04/26 01:50:36;;;;;;;8.63;3.73;;;3.70;99.90;;;;;;5038828;28;20187;-64
2021/04/26 01:53:03;;;;;;;13.57;4.23;;;3.70;99.90;;;;;;5046932;28;20288;-64
2021/04/26 01:55:31;;;;;;;8.57;4.33;;;3.70;99.90;;;;;;5035716;28;20236;-64
2021/04/26 01:58:00;;;;;;;19.20;4.30;;;3.70;99.90;;;;;;5043444;28;20186;-64
2021/04/26 02:00:29;;;;;;;12.97;4.40;;;3.80;99.90;;;;;;5038494;28;20181;-64
2021/04/26 02:02:59;;;;;;;9.87;4.30;;;3.70;99.90;;;;;;5039744;28;20209;-64
2021/04/26 02:05:54;;;;;;;6.40;3.80;;;3.70;99.90;;;;;;5040345;28;20223;-64
2021/04/26 02:08:24;;;;;;;8.10;4.20;;;3.60;99.90;;;;;;5043395;28;20193;-64
2021/04/26 02:10:52;;;;;;;12.73;4.73;;;3.50;99.90;;;;;;5038065;28;20314;-64
2021/04/26 02:13:21;;;;;;;6.97;4.40;;;3.50;99.90;;;;;;5043364;28;20212;-64
2021/04/26 02:15:51;;;;;;;9.47;4.00;;;3.50;99.90;;;;;;5041372;28;20441;-64
2021/04/26 02:18:18;;;;;;;6.63;3.73;;;3.50;99.90;;;;;;5039843;28;20228;-64
2021/04/26 02:20:46;;;;;;;6.10;3.80;;;3.30;99.90;;;;;;5042382;28;20413;-64
2021/04/26 02:23:14;;;;;;;6.90;3.90;;;3.20;99.90;;;;;;5041215;28;20185;-64
2021/04/26 02:25:42;;;;;;;10.70;4.10;;;3.10;99.90;;;;;;5042360;28;20504;-64
2021/04/26 02:28:09;;;;;;;6.97;4.17;;;3.00;99.90;;;;;;5042455;28;20198;-64
2021/04/26 02:30:37;;;;;;;11.03;3.90;;;2.90;99.90;;;;;;5041085;28;20177;-63
2021/04/26 02:33:08;;;;;;;9.63;4.70;;;2.90;99.90;;;;;;5029215;28;20189;-64
2021/04/26 02:35:38;;;;;;;12.53;4.03;;;2.90;99.90;;;;;;5041760;28;20196;-64
2021/04/26 02:38:09;;;;;;;8.70;4.13;;;2.80;99.90;;;;;;5036860;28;20182;-64
2021/04/26 02:40:43;;;;;;;11.73;4.57;;;2.80;99.90;;;;;;5037945;28;20188;-64
2021/04/26 02:43:12;;;;;;;14.50;4.50;;;2.80;99.90;;;;;;5042790;28;20326;-64
2021/04/26 02:45:45;;;;;;;5.50;4.27;;;2.70;99.90;;;;;;5041716;28;20217;-64
2021/04/26 02:48:13;;;;;;;14.57;5.23;;;2.80;99.90;;;;;;5048822;28;20189;-64
2021/04/26 02:50:42;;;;;;;10.23;4.30;;;2.70;99.90;;;;;;5041014;28;20407;-63
2021/04/26 02:53:10;;;;;;;5.73;4.17;;;2.60;99.90;;;;;;5038608;28;20181;-64
2021/04/26 02:55:40;;;;;;;14.37;4.63;;;2.50;99.90;;;;;;5042245;28;20244;-64
2021/04/26 02:58:08;;;;;;;8.67;4.30;;;2.50;99.90;;;;;;5034250;28;20446;-64
2021/04/26 03:00:36;;;;;;;9.00;4.00;;;2.40;99.90;;;;;;5032886;28;20190;-63
2021/04/26 03:03:22;;;;;;;10.90;4.83;;;2.30;99.90;;;;;;5036808;28;20417;-64
2021/04/26 03:05:50;;;;;;;15.33;4.80;;;2.30;99.90;;;;;;5040338;28;20240;-64
2021/04/26 03:08:20;;;;;;;10.53;4.53;;;2.30;99.90;;;;;;5035985;28;20181;-64
2021/04/26 03:10:49;;;;;;;11.70;4.40;;;2.30;99.90;;;;;;5039408;28;20177;-64
2021/04/26 03:13:17;;;;;;;12.13;4.90;;;2.30;99.90;;;;;;5034720;28;20201;-64
2021/04/26 03:15:45;;;;;;;9.93;4.03;;;2.30;99.90;;;;;;5041467;28;20235;-63
2021/04/26 03:18:13;;;;;;;10.53;4.17;;;2.20;99.90;;;;;;5033197;28;20248;-64
2021/04/26 03:20:41;;;;;;;7.83;4.20;;;2.30;99.90;;;;;;5039172;28;20182;-64
2021/04/26 03:23:10;;;;;;;16.60;4.43;;;2.30;99.90;;;;;;5040847;28;20256;-64
2021/04/26 03:25:37;;;;;;;7.43;4.57;;;2.30;99.90;;;;;;5035901;28;20186;-63
2021/04/26 03:28:05;;;;;;;8.93;4.20;;;2.30;99.90;;;;;;5038521;28;20178;-64
2021/04/26 03:30:33;;;;;;;7.63;4.43;;;2.20;99.90;;;;;;5043785;28;21436;-64
2021/04/26 03:33:01;;;;;;;11.57;4.70;;;2.20;99.90;;;;;;5039648;28;20235;-64
2021/04/26 03:35:28;;;;;;;10.10;4.50;;;2.10;99.90;;;;;;5040560;28;20356;-64
2021/04/26 03:37:56;;;;;;;19.83;5.27;;;2.10;99.90;;;;;;5042899;28;20390;-64
2021/04/26 03:40:25;;;;;;;12.13;5.20;;;2.10;99.90;;;;;;5042217;28;20387;-64
2021/04/26 03:42:54;;;;;;;13.97;5.07;;;2.00;99.90;;;;;;5041528;28;20405;-64
2021/04/26 03:45:23;;;;;;;12.23;5.50;;;2.00;99.90;;;;;;5046328;28;20418;-64
2021/04/26 03:47:50;;;;;;;10.30;4.57;;;2.10;99.90;;;;;;5042008;28;20243;-64
2021/04/26 03:50:19;;;;;;;12.07;5.10;;;2.10;99.90;;;;;;5041356;28;20189;-64
2021/04/26 03:52:46;;;;;;;9.63;4.53;;;2.10;99.90;;;;;;5037477;28;20266;-64
2021/04/26 03:55:16;;;;;;;7.80;5.00;;;2.10;99.90;;;;;;5037828;28;20182;-64
2021/04/26 03:57:43;;;;;;;12.83;5.13;;;2.10;99.90;;;;;;5040007;28;20300;-63
2021/04/26 04:00:12;;;;;;;13.57;5.27;;;2.00;99.90;;;;;;5044110;28;20173;-64
2021/04/26 04:02:42;;;;;;;9.87;4.47;;;2.00;99.90;;;;;;5040277;28;20261;-63
2021/04/26 04:05:11;;;;;;;14.07;5.00;;;1.90;99.90;;;;;;5042221;28;20173;-64
2021/04/26 04:07:38;;;;;;;8.53;4.93;;;1.90;99.90;;;;;;5041940;28;20216;-63
2021/04/26 04:10:08;;;;;;;8.97;4.67;;;1.90;99.90;;;;;;5060696;28;20263;-64
2021/04/26 04:12:36;;;;;;;17.53;5.03;;;2.00;99.90;;;;;;5046111;28;20185;-64
2021/04/26 04:15:07;;;;;;;12.70;5.20;;;2.00;99.90;;;;;;5035507;28;20186;-64
2021/04/26 04:17:36;;;;;;;10.13;5.23;;;2.00;99.90;;;;;;5036644;28;20259;-64
2021/04/26 04:20:07;;;;;;;12.93;5.23;;;2.00;99.90;;;;;;5038321;28;20359;-64
2021/04/26 04:22:35;;;;;;;12.87;5.37;;;2.00;99.90;;;;;;5041766;28;20186;-64
2021/04/26 04:25:03;;;;;;;12.90;5.00;;;2.10;99.90;;;;;;5040952;28;20193;-64
2021/04/26 04:27:30;;;;;;;6.10;4.70;;;2.20;99.90;;;;;;5020753;28;20204;-63
2021/04/26 04:29:58;;;;;;;16.90;5.23;;;2.30;99.90;;;;;;5043683;28;21323;-63
2021/04/26 04:32:25;;;;;;;16.60;5.77;;;2.30;99.90;;;;;;5044122;28;20177;-64
2021/04/26 04:34:52;;;;;;;15.30;5.13;;;2.30;99.90;;;;;;5026757;28;20189;-63
2021/04/26 04:37:20;;;;;;;10.70;4.80;;;2.30;99.90;;;;;;5045954;28;20210;-64
2021/04/26 04:39:48;;;;;;;8.33;5.07;;;2.30;99.90;;;;;;5042491;28;20213;-63
2021/04/26 04:42:15;;;;;;;12.33;5.37;;;2.20;99.90;;;;;;5036747;28;20178;-64
2021/04/26 04:44:42;;;;;;;13.27;4.90;;;2.20;99.90;;;;;;5040297;28;20194;-64
2021/04/26 04:47:10;;;;;;;11.80;4.90;;;2.10;99.90;;;;;;5043699;28;20205;-64
2021/04/26 04:49:37;;;;;;;13.87;5.07;;;2.20;99.90;;;;;;5039701;28;20177;-64
2021/04/26 04:52:05;;;;;;;13.53;5.33;;;2.20;99.90;;;;;;5058089;28;20181;-65
2021/04/26 04:54:33;;;;;;;11.63;5.03;;;2.20;99.90;;;;;;5041396;28;20193;-64
2021/04/26 04:57:00;;;;;;;12.40;4.90;;;2.20;99.90;;;;;;5042681;28;20201;-65
2021/04/26 04:59:28;;;;;;;18.97;5.67;;;2.20;99.90;;;;;;5044525;28;20254;-64
2021/04/26 05:01:55;;;;;;;9.70;4.83;;;2.20;99.90;;;;;;5045499;28;20177;-64
2021/04/26 05:04:23;;;;;;;8.87;4.70;;;2.20;99.90;;;;;;5038896;28;20276;-64
2021/04/26 05:06:51;;;;;;;6.13;4.60;;;2.20;99.90;;;;;;5042458;28;20205;-64
2021/04/26 05:09:22;;;;;;;13.97;5.47;;;2.20;99.90;;;;;;5033101;28;20193;-64
2021/04/26 05:11:50;;;;;;;7.40;4.90;;;2.20;99.90;;;;;;5035849;28;20232;-64
2021/04/26 05:14:18;;;;;;;11.43;5.00;;;2.30;99.90;;;;;;5041270;28;20330;-64
2021/04/26 05:16:45;;;;;;;14.07;5.40;;;2.40;99.90;;;;;;5040923;28;20217;-64
2021/04/26 05:19:12;;;;;;;10.53;5.60;;;2.50;99.90;;;;;;5042936;28;20419;-64
2021/04/26 05:21:42;;;;;;;7.70;5.00;;;2.60;99.90;;;;;;5045649;28;20178;-64
2021/04/26 05:24:10;;;;;;;13.03;5.53;;;2.70;99.90;;;;;;5043743;28;20350;-64
2021/04/26 05:26:37;;;;;;;11.80;5.43;;;2.80;99.90;;;;;;5036772;28;20342;-64
2021/04/26 05:29:05;;;;;;;11.10;5.30;;;2.90;99.90;;;;;;5041957;28;20186;-64
2021/04/26 05:31:33;;;;;;;10.73;5.27;;;3.00;99.90;;;;;;5036400;28;20214;-64
2021/04/26 05:34:00;;;;;;;13.50;5.63;;;3.30;99.90;;;;;;5047819;28;20375;-64
2021/04/26 05:36:28;;;;;;;10.43;5.83;;;3.80;99.90;;;;;;5044671;28;20228;-64
2021/04/26 05:38:55;;;;;;;10.80;5.67;;;4.20;99.90;;;;;;5041424;28;20198;-64
2021/04/26 05:41:22;;;;;;;10.40;5.13;;;4.60;99.90;;;;;;5043580;28;20418;-64
2021/04/26 05:43:49;;;;;;;9.33;4.70;;;5.00;99.90;;;;;;5042639;28;20182;-64
2021/04/26 05:46:18;;;;;;;13.10;4.63;;;5.40;99.90;;;;;;5042220;28;20213;-65
2021/04/26 05:48:45;;;;;;;6.43;4.20;;;5.70;99.90;;;;;;5038522;28;20201;-64
2021/04/26 05:51:13;;;;;;;9.00;4.40;;;5.90;99.90;;;;;;5043793;28;20350;-64
2021/04/26 05:53:40;;;;;;;6.93;3.93;;;6.20;99.90;;;;;;5033853;28;20185;-64
2021/04/26 05:56:08;;;;;;;6.77;4.30;;;6.50;99.90;;;;;;5036872;28;20198;-64
2021/04/26 05:58:36;;;;;;;9.97;4.20;;;6.50;99.90;;;;;;5038164;28;20375;-64
2021/04/26 06:01:03;;;;;;;7.53;3.77;;;6.70;99.90;;;;;;5043622;28;20193;-64
2021/04/26 06:03:31;;;;;;;6.00;4.00;;;6.60;99.90;;;;;;5043027;28;20177;-64
2021/04/26 06:05:59;;;;;;;9.57;4.17;;;6.70;99.90;;;;;;5040448;28;20219;-64
2021/04/26 06:08:27;;;;;;;10.03;3.90;;;6.90;99.90;;;;;;5043510;28;20207;-64
2021/04/26 06:10:54;;;;;;;9.87;3.87;;;7.10;99.90;;;;;;5043920;28;20206;-64
2021/04/26 06:13:23;;;;;;;9.20;4.00;;;7.30;99.90;;;;;;5039533;28;20201;-64
2021/04/26 06:15:50;;;;;;;7.37;4.00;;;7.40;99.90;;;;;;5035014;28;20189;-64
2021/04/26 06:18:21;;;;;;;7.07;3.90;;;7.70;99.90;;;;;;5042491;28;20201;-64
2021/04/26 06:20:52;;;;;;;4.63;3.63;;;7.70;99.90;;;;;;5035654;28;20208;-64
2021/04/26 06:23:20;;;;;;;12.43;4.63;;;7.80;99.90;;;;;;5044310;28;20302;-64
2021/04/26 06:25:48;;;;;;;11.03;4.50;;;8.00;99.90;;;;;;5060563;28;20185;-64
2021/04/26 06:28:16;;;;;;;11.17;4.50;;;7.90;99.90;;;;;;5038792;28;20240;-64
2021/04/26 06:30:46;;;;;;;11.83;4.10;;;8.00;99.90;;;;;;5039308;28;20251;-65
2021/04/26 06:33:16;;;;;;;6.80;4.23;;;8.40;99.90;;;;;;5029330;28;20197;-64
2021/04/26 06:35:44;;;;;;;9.13;4.03;;;8.50;99.90;;;;;;5040388;28;20185;-64
2021/04/26 06:38:13;;;;;;;4.23;3.43;;;8.70;99.90;;;;;;5040374;28;20186;-64
2021/04/26 06:40:40;;;;;;;9.03;4.13;;;9.00;99.90;;;;;;5057252;28;20236;-64
2021/04/26 06:43:08;;;;;;;6.00;3.87;;;8.80;99.90;;;;;;5037927;28;20288;-64
2021/04/26 06:45:35;;;;;;;8.10;4.27;;;8.80;99.90;;;;;;5021193;28;20186;-64
2021/04/26 06:48:04;;;;;;;6.00;3.73;;;9.10;99.90;;;;;;5041941;28;20343;-64
2021/04/26 06:50:31;;;;;;;11.90;3.90;;;9.30;99.90;;;;;;5033319;28;20471;-64
2021/04/26 06:52:59;;;;;;;5.07;4.07;;;9.20;99.90;;;;;;5038158;28;20450;-64
2021/04/26 06:55:27;;;;;;;6.17;3.53;;;9.10;99.90;;;;;;5033673;28;20212;-64
2021/04/26 06:57:55;;;;;;;6.90;4.03;;;9.40;99.90;;;;;;5030631;28;20209;-65
2021/04/26 07:00:24;;;;;;;4.13;3.73;;;9.90;99.90;;;;;;5040347;28;20418;-65
2021/04/26 07:02:52;;;;;;;8.40;4.30;;;10.40;99.90;;;;;;5037571;28;20181;-65
2021/04/26 07:05:19;;;;;;;6.73;3.97;;;10.80;99.90;;;;;;5040875;28;20235;-65
2021/04/26 07:07:47;;;;;;;10.30;4.57;;;10.60;99.90;;;;;;5028701;28;20311;-64
2021/04/26 07:10:14;;;;;;;6.20;4.10;;;10.60;99.90;;;;;;5039935;28;20313;-65
2021/04/26 07:12:43;;;;;;;6.30;3.73;;;11.00;99.90;;;;;;5035796;28;20194;-64
2021/04/26 07:15:12;;;;;;;6.83;3.83;;;11.10;99.90;;;;;;5036555;28;20194;-65
2021/04/26 07:17:40;;;;;;;12.10;3.50;;;11.20;99.90;;;;;;5039373;28;20217;-65
2021/04/26 07:20:10;;;;;;;4.03;3.60;;;11.50;99.90;;;;;;5036456;28;20174;-65
2021/04/26 07:22:38;;;;;;;9.87;3.50;;;12.10;99.90;;;;;;5033418;28;20330;-65
2021/04/26 07:25:07;;;;;;;9.27;3.70;;;12.60;99.90;;;;;;5030527;28;20347;-66
2021/04/26 07:27:34;;;;;;;7.23;3.80;;;13.10;99.90;;;;;;5032252;28;20202;-66
2021/04/26 07:30:04;;;;;;;6.30;3.80;;;13.30;99.90;;;;;;5041281;28;20182;-66
2021/04/26 07:32:31;;;;;;;7.90;3.90;;;13.60;99.90;;;;;;5036154;28;20195;-66
2021/04/26 07:34:59;;;;;;;5.77;3.80;;;13.50;99.90;;;;;;5030941;28;20327;-66
2021/04/26 07:37:27;;;;;;;8.03;4.00;;;13.60;99.90;;;;;;5041093;28;20432;-66
2021/04/26 07:39:54;;;;;;;4.60;3.70;;;12.80;99.90;;;;;;5039062;28;20181;-65
2021/04/26 07:42:22;;;;;;;10.57;4.30;;;13.00;99.90;;;;;;5030640;28;20245;-66
2021/04/26 07:44:50;;;;;;;9.80;4.13;;;13.70;99.90;;;;;;5033063;28;20190;-66
2021/04/26 07:47:18;;;;;;;11.17;4.10;;;14.10;99.90;;;;;;5028177;28;20339;-66
2021/04/26 07:49:46;;;;;;;9.53;3.70;;;14.10;99.90;;;;;;5041951;28;20185;-66
2021/04/26 07:52:32;;;;;;;4.80;3.77;;;14.20;99.90;;;;;;5034948;28;20304;-66
2021/04/26 07:54:59;;;;;;;6.33;3.80;;;14.70;99.90;;;;;;5033342;28;20349;-66
2021/04/26 07:57:27;;;;;;;7.63;3.70;;;14.60;99.90;;;;;;5037179;28;20233;-66
2021/04/26 07:59:54;;;;;;;8.33;3.77;;;14.90;99.90;;;;;;5040087;28;20236;-66
2021/04/26 08:02:23;;;;;;;8.10;3.87;;;15.20;99.90;;;;;;5037373;28;20201;-66
2021/04/26 08:04:50;;;;;;;7.57;3.90;;;15.30;99.90;;;;;;5034232;28;20181;-66
2021/04/26 08:07:18;;;;;;;7.03;3.63;;;15.30;99.90;;;;;;5050265;28;20438;-66
2021/04/26 08:09:45;;;;;;;6.53;3.90;;;15.40;99.90;;;;;;5040454;28;20403;-66
2021/04/26 08:12:12;;;;;;;5.73;3.70;;;15.70;99.90;;;;;;5036612;28;20182;-66
2021/04/26 08:14:40;;;;;;;9.47;3.77;;;16.00;99.90;;;;;;5039224;28;20185;-67
2021/04/26 08:17:07;;;;;;;6.67;3.70;;;16.50;99.90;;;;;;5024433;28;20232;-66
2021/04/26 08:19:38;;;;;;;9.00;4.33;;;16.60;99.90;;;;;;5039944;28;20239;-66
2021/04/26 08:22:07;;;;;;;8.40;4.17;;;16.20;99.50;;;;;;5037109;28;20351;-66
2021/04/26 08:24:35;;;;;;;8.50;3.43;;;16.20;99.90;;;;;;5037972;28;20186;-66
2021/04/26 08:27:02;;;;;;;5.40;3.50;;;16.40;98.80;;;;;;5051048;28;20212;-66
2021/04/26 08:29:30;;;;;;;6.60;4.07;;;16.50;99.30;;;;;;5026737;28;20398;-67
2021/04/26 08:31:57;;;;;;;5.87;3.60;;;17.00;99.30;;;;;;5040183;28;20205;-67
2021/04/26 08:34:25;;;;;;;14.13;4.37;;;17.60;98.90;;;;;;5035688;28;20426;-66
2021/04/26 08:36:53;;;;;;;12.53;4.10;;;17.40;97.20;;;;;;5035551;28;20190;-66
2021/04/26 08:39:21;;;;;;;9.83;4.87;;;17.20;97.20;;;;;;5039311;28;20185;-66
2021/04/26 08:41:48;;;;;;;7.10;3.90;;;17.80;98.00;;;;;;5041432;28;20178;-66
2021/04/26 08:44:16;;;;;;;6.17;4.13;;;18.20;96.60;;;;;;5046752;28;20208;-66
2021/04/26 08:46:45;;;;;;;7.30;3.90;;;17.90;96.30;;;;;;5035362;28;20525;-66
2021/04/26 08:49:16;;;;;;;8.37;4.10;;;17.80;96.00;;;;;;5032137;28;20423;-66
2021/04/26 08:51:45;;;;;;;4.93;4.00;;;17.80;96.90;;;;;;5034496;28;20177;-66
2021/04/26 08:54:15;;;;;;;8.13;3.80;;;17.70;95.80;;;;;;5037166;28;20198;-67
2021/04/26 08:56:43;;;;;;;6.73;4.20;;;17.90;95.90;;;;;;5040435;28;20198;-66
2021/04/26 08:59:12;;;;;;;10.57;4.10;;;18.10;95.40;;;;;;5040645;28;20439;-66
2021/04/26 09:01:39;;;;;;;10.30;4.10;;;18.60;96.70;;;;;;5037056;28;20186;-67
2021/04/26 09:04:08;;;;;;;15.83;4.37;;;19.00;94.30;;;;;;5035232;28;20185;-67
2021/04/26 09:06:53;;;;;;;7.30;4.00;;;18.60;94.70;;;;;;5028776;28;20217;-67
2021/04/26 09:09:36;;;;;;;4.37;3.90;;;18.80;93.40;;;;;;5037635;28;20219;-66
2021/04/26 09:12:05;;;;;;;6.23;3.97;;;18.70;94.20;;;;;;5036113;28;20235;-67
2021/04/26 09:14:41;;;;;;;6.67;4.07;;;18.70;93.50;;;;;;5036925;28;20182;-67
2021/04/26 09:17:44;;;;;;;6.17;3.60;;;18.70;92.90;;;;;;5042545;28;20219;-67
2021/04/26 09:20:23;;;;;;;6.37;3.60;;;18.90;92.20;;;;;;5036126;28;20195;-67
2021/04/26 09:22:53;;;;;;;6.10;3.97;;;18.70;91.30;;;;;;5039738;28;20174;-66
2021/04/26 09:25:30;;;;;;;7.27;4.30;;;18.50;91.90;;;;;;5049299;28;20177;-66
2021/04/26 09:28:00;;;;;;;5.90;3.70;;;18.10;91.40;;;;;;5035601;28;20231;-66
2021/04/26 09:30:49;;;;;;;5.73;3.93;;;18.60;92.00;;;;;;5031778;28;20227;-67
2021/04/26 09:33:37;;;;;;;6.40;4.10;;;18.90;92.30;;;;;;5049755;28;20236;-67
2021/04/26 09:36:13;;;;;;;7.30;3.60;;;19.40;91.40;;;;;;5033447;28;20853;-66
2021/04/26 09:38:44;;;;;;;4.27;3.73;;;19.70;90.80;;;;;;5045740;28;20181;-67
2021/04/26 09:41:21;;;;;;;3.70;3.40;;;19.50;90.60;;;;;;5042164;28;20200;-67
2021/04/26 09:43:51;;;;;;;7.70;4.13;;;19.60;90.60;;;;;;5032655;28;20183;-67
2021/04/26 09:46:22;;;;;;;4.83;3.50;;;19.90;89.30;;;;;;5031579;28;20202;-67
2021/04/26 09:48:49;;;;;;;4.37;3.87;;;19.70;90.60;;;;;;5042085;28;20198;-67
2021/04/26 09:51:22;;;;;;;8.40;4.40;;;19.50;87.50;;;;;;5043432;28;20219;-66
2021/04/26 09:53:55;;;;;;;8.57;3.57;;;18.60;90.00;;;;;;5039054;28;20182;-67
2021/04/26 09:56:25;;;;;;;5.23;3.63;;;19.00;92.50;;;;;;5043544;28;20371;-67
2021/04/26 09:58:55;;;;;;;4.33;3.93;;;19.50;87.60;;;;;;5046289;28;20237;-66
2021/04/26 10:01:24;;;;;;;4.53;3.67;;;18.90;90.00;;;;;;5029198;28;20184;-66
2021/04/26 10:03:53;;;;;;;3.87;3.43;;;18.90;87.20;;;;;;5037176;28;20247;-66
2021/04/26 10:06:24;;;;;;;6.43;3.47;;;18.90;88.80;;;;;;5035345;28;20185;-66
2021/04/26 10:08:56;;;;;;;4.63;3.47;;;19.20;87.20;;;;;;5034734;28;20200;-66
2021/04/26 10:11:28;;;;;;;3.70;2.97;;;20.00;88.20;;;;;;5035752;28;20201;-67
2021/04/26 10:14:03;;;;;;;6.60;3.37;;;20.50;88.90;;;;;;5035228;28;20182;-66
2021/04/26 10:16:44;;;;;;;5.80;3.30;;;19.70;84.40;;;;;;5037104;28;20181;-66
2021/04/26 10:19:14;;;;;;;6.30;3.40;;;19.80;83.80;;;;;;5027447;28;20431;-66
2021/04/26 10:21:53;;;;;;;3.40;3.10;;;19.90;84.10;;;;;;5039533;28;20318;-67
2021/04/26 10:24:24;;;;;;;3.77;3.30;;;20.10;85.10;;;;;;5037472;28;20182;-67
2021/04/26 10:26:54;;;;;;;3.60;3.30;;;20.30;81.60;;;;;;5037705;28;20225;-67
2021/04/26 10:29:25;;;;;;;5.80;3.60;;;20.30;83.20;;;;;;5040969;28;20403;-67
2021/04/26 10:32:11;;;;;;;4.40;3.10;;;20.40;83.90;;;;;;5035695;28;20218;-67
2021/04/26 10:35:09;;;;;;;6.43;3.50;;;19.50;81.60;;;;;;5031144;28;20236;-66
2021/04/26 10:37:38;;;;;;;4.30;3.57;;;19.70;82.50;;;;;;5030808;28;20182;-66
2021/04/26 10:40:18;;;;;;;4.93;3.20;;;19.80;84.40;;;;;;5038385;28;20235;-67
2021/04/26 10:42:49;;;;;;;5.67;3.80;;;19.90;82.50;;;;;;5033491;28;20261;-67
2021/04/26 10:45:24;;;;;;;4.30;3.50;;;18.60;83.00;;;;;;5034201;28;20265;-66
2021/04/26 10:48:12;;;;;;;3.77;3.47;;;18.80;84.10;;;;;;5035245;28;20209;-66
2021/04/26 10:50:51;;;;;;;4.87;3.63;;;19.30;83.60;;;;;;5038767;28;20212;-66
2021/04/26 10:53:20;;;;;;;5.77;3.90;;;19.30;81.20;;;;;;5035052;28;20197;-66
2021/04/26 10:59:27;;;;;;;4.73;4.30;;;18.90;80.90;;;;;;5035326;28;20342;-66
2021/04/26 11:01:58;;;;;;;3.90;3.43;;;18.90;83.10;;;;;;5033861;28;20233;-66
2021/04/26 11:04:26;;;;;;;4.30;3.83;;;19.60;82.40;;;;;;5035678;28;20342;-67
2021/04/26 11:07:01;;;;;;;4.40;4.00;;;19.40;82.50;;;;;;5035794;28;20395;-66
2021/04/26 11:09:37;;;;;;;10.27;4.57;;;19.00;83.70;;;;;;5035254;28;20409;-66
2021/04/26 11:12:31;;;;;;;4.53;4.13;;;18.40;84.80;;;;;;5043274;28;20263;-66
2021/04/26 11:15:13;;;;;;;5.20;4.27;;;17.80;85.00;;;;;;5032054;28;20411;-66
2021/04/26 11:17:41;;;;;;;4.93;4.50;;;17.80;86.00;;;;;;5042984;28;20509;-66
2021/04/26 11:20:14;;;;;;;6.23;4.03;;;18.30;86.90;;;;;;5030395;28;20181;-67
2021/04/26 11:22:42;;;;;;;4.97;4.30;;;18.90;86.20;;;;;;5025437;28;20186;-66
2021/04/26 11:25:30;;;;;;;5.70;4.17;;;18.70;83.70;;;;;;5034360;28;20184;-66
2021/04/26 11:27:59;;;;;;;8.63;4.03;;;18.40;82.90;;;;;;5029068;28;20205;-65
2021/04/26 11:30:30;;;;;;;5.40;4.03;;;18.00;84.40;;;;;;5054778;28;20184;-66
2021/04/26 11:33:17;;;;;;;5.20;4.70;;;17.50;86.60;;;;;;5038196;28;20206;-65
2021/04/26 11:36:14;;;;;;;6.07;4.30;;;17.70;87.00;;;;;;5034880;28;20186;-66
2021/04/26 11:38:43;;;;;;;9.87;4.90;;;18.10;85.20;;;;;;5036389;28;20186;-66
2021/04/26 11:41:11;;;;;;;6.60;4.60;;;18.20;90.80;;;;;;5030328;28;20186;-66
2021/04/26 11:43:52;;;;;;;9.00;4.40;;;18.50;85.60;;;;;;5036117;28;20190;-66
2021/04/26 11:46:28;;;;;;;10.50;4.30;;;18.30;85.70;;;;;;5036526;28;20351;-66
2021/04/26 11:49:17;;;;;;;5.93;4.00;;;18.00;85.80;;;;;;5042448;28;20280;-66
2021/04/26 11:51:45;;;;;;;4.43;4.03;;;18.10;84.40;;;;;;5039580;28;20205;-66
2021/04/26 11:54:15;;;;;;;4.60;4.10;;;17.80;88.70;;;;;;5036561;28;20225;-66
2021/04/26 11:56:59;;;;;;;5.00;4.60;;;18.20;85.80;;;;;;5041315;28;20415;-66
2021/04/26 11:59:27;;;;;;;6.73;4.50;;;17.80;83.60;;;;;;5038214;28;20317;-66
2021/04/26 12:01:55;;;;;;;5.17;4.60;;;17.10;83.80;;;;;;5038840;28;20233;-65
2021/04/26 12:04:33;;;;;;;8.13;4.47;;;16.90;84.70;;;;;;5035760;28;20181;-65
2021/04/26 12:07:02;;;;;;;6.17;4.30;;;17.40;91.50;;;;;;5038073;28;20379;-65
2021/04/26 12:09:30;;;;;;;5.20;4.63;;;17.80;86.10;;;;;;5037325;28;20228;-66
2021/04/26 12:11:58;;;;;;;6.80;4.60;;;17.60;88.00;;;;;;5026831;28;20603;-65
2021/04/26 12:14:27;;;;;;;8.10;4.53;;;17.70;86.10;;;;;;5042424;28;20182;-65
2021/04/26 12:17:17;;;;;;;6.53;4.43;;;17.60;85.90;;;;;;5042808;28;20237;-66
2021/04/26 12:19:46;;;;;;;10.83;4.93;;;17.70;90.10;;;;;;5033472;28;20284;-65
2021/04/26 12:22:14;;;;;;;6.13;4.57;;;18.00;86.60;;;;;;5044595;28;20182;-66
2021/04/26 12:24:42;;;;;;;5.13;4.73;;;18.10;90.70;;;;;;5038777;28;20212;-66
2021/04/26 12:27:12;;;;;;;6.07;4.30;;;18.00;85.80;;;;;;5042076;28;20243;-66
2021/04/26 12:29:41;;;;;;;5.93;4.50;;;17.90;86.60;;;;;;5046133;28;20192;-66
2021/04/26 12:32:14;;;;;;;4.57;4.17;;;17.90;91.60;;;;;;5031894;28;20202;-66
2021/04/26 12:34:53;;;;;;;4.70;4.17;;;17.70;86.50;;;;;;5034808;28;20198;-65
2021/04/26 12:37:23;;;;;;;5.37;4.10;;;17.00;84.90;;;;;;5037503;28;20356;-67
2021/04/26 12:39:50;;;;;;;5.40;4.67;;;17.10;85.60;;;;;;5040847;28;20231;-67
2021/04/26 12:42:22;;;;;;;6.30;4.97;;;16.80;84.50;;;;;;5038378;28;20201;-66
2021/04/26 12:44:50;;;;;;;6.33;4.93;;;16.50;89.90;;;;;;5039498;28;20181;-66
2021/04/26 12:47:22;;;;;;;9.10;4.77;;;16.60;87.10;;;;;;5044771;28;20205;-66
2021/04/26 12:50:14;;;;;;;6.90;4.83;;;16.30;86.40;;;;;;5043282;28;20178;-66
2021/04/26 12:52:42;;;;;;;6.10;4.30;;;16.60;85.30;;;;;;5037537;28;20251;-66
2021/04/26 12:55:12;;;;;;;6.93;5.00;;;16.60;86.00;;;;;;5035660;28;20416;-66
2021/04/26 12:57:40;;;;;;;5.40;4.70;;;16.40;86.00;;;;;;5038541;28;20193;-66
2021/04/26 13:00:09;;;;;;;6.97;4.70;;;16.40;85.80;;;;;;5034545;28;20322;-67
2021/04/26 13:02:37;;;;;;;6.53;4.63;;;16.80;86.60;;;;;;5037718;28;20185;-67
2021/04/26 13:05:05;;;;;;;7.70;5.20;;;16.50;85.90;;;;;;5033902;28;20185;-65
2021/04/26 13:07:33;;;;;;;9.20;5.13;;;16.80;91.70;;;;;;5035007;28;20268;-66
2021/04/26 13:10:11;;;;;;;10.97;5.40;;;16.70;89.50;;;;;;5037246;28;20193;-66